Time,TemperatureF,DewpointF,PressureIn,WindDirection,WindDirectionDegrees,WindSpeedMPH,WindSpeedGustMPH,Humidity,HourlyPrecipIn,Conditions,Clouds,dailyrainin,SolarRadiationWatts/m^2,SoftwareType,DateUTC
2013-09-28 00:03:00,80.0,68.0,-100.00,SE,145,9.0,19.0,66,0.00,,,0.00,0.000000,,2013-09-28 05:03:00,
2013-09-28 00:43:00,79.0,68.0,-100.00,SSE,149,7.0,14.0,70,0.00,,,0.00,0.000000,,2013-09-28 05:43:00,
2013-09-28 00:53:00,79.0,68.0,-100.00,SSE,149,7.0,14.0,70,0.00,,,0.00,0.000000,,2013-09-28 05:53:00,
2013-09-28 01:02:00,79.0,68.0,-100.00,SSE,149,7.0,14.0,70,0.00,,,0.00,0.000000,,2013-09-28 06:02:00,
2013-09-28 01:42:00,79.0,70.0,-100.00,SSE,150,8.0,16.0,73,0.00,,,0.00,0.000000,,2013-09-28 06:42:00,
2013-09-28 01:52:00,79.0,70.0,-100.00,SSE,150,8.0,16.0,73,0.00,,,0.00,0.000000,,2013-09-28 06:52:00,
2013-09-28 02:02:00,79.0,70.0,-100.00,SSE,150,8.0,16.0,73,0.00,,,0.00,0.000000,,2013-09-28 07:02:00,
2013-09-28 02:42:00,78.0,70.0,-100.00,SSE,154,10.0,19.0,76,0.00,,,0.00,0.000000,,2013-09-28 07:42:00,
2013-09-28 02:52:00,78.0,70.0,-100.00,SSE,154,10.0,19.0,76,0.00,,,0.00,0.000000,,2013-09-28 07:52:00,
2013-09-28 03:02:00,78.0,70.0,-100.00,SSE,154,10.0,19.0,76,0.00,,,0.00,0.000000,,2013-09-28 08:02:00,
2013-09-28 03:43:00,78.0,71.0,-100.00,SSE,155,10.0,20.0,78,0.00,,,0.00,0.000000,,2013-09-28 08:43:00,
2013-09-28 03:53:00,78.0,71.0,-100.00,SSE,155,10.0,20.0,78,0.00,,,0.00,0.000000,,2013-09-28 08:53:00,
2013-09-28 04:01:00,78.0,71.0,-100.00,SSE,155,10.0,20.0,78,0.00,,,0.00,0.000000,,2013-09-28 09:01:00,
2013-09-28 04:43:00,78.0,71.0,-100.00,SSE,153,10.0,16.0,79,0.00,,,0.00,0.000000,,2013-09-28 09:43:00,
2013-09-28 04:54:00,78.0,71.0,-100.00,SSE,153,10.0,16.0,79,0.00,,,0.00,0.000000,,2013-09-28 09:54:00,
2013-09-28 05:03:00,78.0,71.0,-100.00,SSE,153,10.0,16.0,79,0.00,,,0.00,0.000000,,2013-09-28 10:03:00,
2013-09-28 05:43:00,77.0,70.0,-100.00,SSE,152,8.0,15.0,80,0.00,,,0.00,0.000000,,2013-09-28 10:43:00,
2013-09-28 05:52:00,77.0,70.0,-100.00,SSE,152,8.0,15.0,80,0.00,,,0.00,0.000000,,2013-09-28 10:52:00,
2013-09-28 06:03:00,77.0,70.0,-100.00,SSE,152,8.0,15.0,80,0.00,,,0.00,0.000000,,2013-09-28 11:03:00,
2013-09-28 06:43:00,77.0,71.0,-100.00,SSE,155,7.0,15.0,82,0.00,,,0.00,0.000000,,2013-09-28 11:43:00,
2013-09-28 06:52:00,77.0,71.0,-100.00,SSE,155,7.0,15.0,82,0.00,,,0.00,0.000000,,2013-09-28 11:52:00,
2013-09-28 07:01:00,77.0,71.0,-100.00,SSE,155,7.0,15.0,82,0.00,,,0.00,0.000000,,2013-09-28 12:01:00,
2013-09-28 07:42:00,78.0,72.0,-100.00,SSE,149,8.0,15.0,81,0.00,,,0.00,0.000000,,2013-09-28 12:42:00,
2013-09-28 07:52:00,78.0,72.0,-100.00,SSE,149,8.0,15.0,81,0.00,,,0.00,0.000000,,2013-09-28 12:52:00,
2013-09-28 08:02:00,78.0,72.0,-100.00,SSE,149,8.0,15.0,81,0.00,,,0.00,0.000000,,2013-09-28 13:02:00,
2013-09-28 08:42:00,77.0,71.0,-100.00,SSE,148,7.0,20.0,82,0.00,,,0.00,16.000000,,2013-09-28 13:42:00,
2013-09-28 08:52:00,77.0,71.0,-100.00,SSE,148,7.0,20.0,82,0.00,,,0.00,16.000000,,2013-09-28 13:52:00,
2013-09-28 09:02:00,77.0,71.0,-100.00,SSE,148,7.0,20.0,82,0.00,,,0.00,16.000000,,2013-09-28 14:02:00,
2013-09-28 09:42:00,80.0,74.0,-100.00,SSE,163,9.0,17.0,81,0.00,,,0.00,111.000000,,2013-09-28 14:42:00,
2013-09-28 09:52:00,80.0,74.0,-100.00,SSE,163,9.0,17.0,81,0.00,,,0.00,111.000000,,2013-09-28 14:52:00,
2013-09-28 10:02:00,80.0,74.0,-100.00,SSE,163,9.0,17.0,81,0.00,,,0.00,111.000000,,2013-09-28 15:02:00,
2013-09-28 10:44:00,80.0,73.0,-100.00,SSE,162,9.0,19.0,78,0.00,,,0.00,124.000000,,2013-09-28 15:44:00,
2013-09-28 10:54:00,80.0,73.0,-100.00,SSE,162,9.0,19.0,78,0.00,,,0.00,124.000000,,2013-09-28 15:54:00,
2013-09-28 11:05:00,80.0,73.0,-100.00,SSE,162,9.0,19.0,78,0.00,,,0.00,124.000000,,2013-09-28 16:05:00,
2013-09-28 11:43:00,81.0,73.0,-100.00,SSE,166,9.0,15.0,77,0.00,,,0.00,116.000000,,2013-09-28 16:43:00,
2013-09-28 11:54:00,81.0,73.0,-100.00,SSE,166,9.0,15.0,77,0.00,,,0.00,116.000000,,2013-09-28 16:54:00,
2013-09-28 12:03:00,81.0,73.0,-100.00,SSE,166,9.0,15.0,77,0.00,,,0.00,116.000000,,2013-09-28 17:03:00,
2013-09-28 12:43:00,84.0,73.0,-100.00,South,184,8.0,17.0,69,0.00,,,0.00,304.000000,,2013-09-28 17:43:00,
2013-09-28 12:52:00,84.0,73.0,-100.00,South,184,8.0,17.0,69,0.00,,,0.00,304.000000,,2013-09-28 17:52:00,
2013-09-28 13:02:00,84.0,73.0,-100.00,South,184,8.0,17.0,69,0.00,,,0.00,304.000000,,2013-09-28 18:02:00,
2013-09-28 13:42:00,86.0,73.0,-100.00,SSE,168,10.0,15.0,66,0.00,,,0.00,380.000000,,2013-09-28 18:42:00,
2013-09-28 13:52:00,86.0,73.0,-100.00,SSE,168,10.0,15.0,66,0.00,,,0.00,380.000000,,2013-09-28 18:52:00,
2013-09-28 14:02:00,86.0,73.0,-100.00,SSE,168,10.0,15.0,66,0.00,,,0.00,380.000000,,2013-09-28 19:02:00,
2013-09-28 14:42:00,86.0,69.0,-100.00,SW,222,5.0,16.0,58,0.00,,,-99.99,655.000000,,2013-09-28 19:42:00,
2013-09-28 14:52:00,86.0,69.0,-100.00,SW,222,5.0,16.0,58,0.00,,,-99.99,655.000000,,2013-09-28 19:52:00,
2013-09-28 15:02:00,86.0,69.0,-100.00,SW,222,5.0,16.0,58,0.00,,,-99.99,655.000000,,2013-09-28 20:02:00,
2013-09-28 15:43:00,74.0,71.0,-100.00,NNW,345,6.0,18.0,91,0.62,,,0.62,56.000000,,2013-09-28 20:43:00,
2013-09-28 15:53:00,74.0,71.0,-100.00,NNW,345,6.0,18.0,91,0.62,,,0.62,56.000000,,2013-09-28 20:53:00,
2013-09-28 16:02:00,74.0,71.0,-100.00,NNW,345,6.0,18.0,91,0.62,,,0.62,56.000000,,2013-09-28 21:02:00,
2013-09-28 16:44:00,74.0,71.0,-100.00,NW,317,3.0,9.0,90,0.00,,,0.62,98.000000,,2013-09-28 21:44:00,
2013-09-28 16:55:00,74.0,71.0,-100.00,NW,317,3.0,9.0,90,0.00,,,0.62,98.000000,,2013-09-28 21:55:00,
2013-09-28 17:04:00,74.0,71.0,-100.00,NW,317,3.0,9.0,90,0.00,,,0.62,98.000000,,2013-09-28 22:04:00,
2013-09-28 17:43:00,72.0,70.0,-100.00,NNW,344,6.0,11.0,92,0.44,,,1.06,12.000000,,2013-09-28 22:43:00,
2013-09-28 17:54:00,72.0,70.0,-100.00,NNW,344,6.0,11.0,92,0.44,,,1.06,12.000000,,2013-09-28 22:54:00,
2013-09-28 18:03:00,72.0,70.0,-100.00,NNW,344,6.0,11.0,92,0.44,,,1.06,12.000000,,2013-09-28 23:03:00,
2013-09-28 18:43:00,74.0,72.0,-100.00,NE,42,7.0,11.0,92,0.01,,,1.07,239.000000,,2013-09-28 23:43:00,
2013-09-28 18:53:00,74.0,72.0,-100.00,NE,42,7.0,11.0,92,0.01,,,1.07,239.000000,,2013-09-28 23:53:00,
2013-09-28 19:02:00,74.0,72.0,-100.00,NE,42,7.0,11.0,92,0.01,,,1.07,239.000000,,2013-09-29 00:02:00,
2013-09-28 19:43:00,72.0,68.0,-100.00,NNE,12,7.0,11.0,88,0.00,,,1.07,31.000000,,2013-09-29 00:43:00,
2013-09-28 19:52:00,72.0,68.0,-100.00,NNE,12,7.0,11.0,88,0.00,,,1.07,31.000000,,2013-09-29 00:52:00,
2013-09-28 20:02:00,72.0,68.0,-100.00,NNE,12,7.0,11.0,88,0.00,,,1.07,31.000000,,2013-09-29 01:02:00,
2013-09-28 20:43:00,71.0,66.0,-100.00,North,9,6.0,12.0,85,0.00,,,1.07,2.000000,,2013-09-29 01:43:00,
2013-09-28 20:52:00,71.0,66.0,-100.00,North,9,6.0,12.0,85,0.00,,,1.07,2.000000,,2013-09-29 01:52:00,
2013-09-28 21:03:00,71.0,66.0,-100.00,North,9,6.0,12.0,85,0.00,,,1.07,2.000000,,2013-09-29 02:03:00,
2013-09-28 21:43:00,69.0,64.0,-100.00,North,8,5.0,13.0,85,0.00,,,1.07,0.000000,,2013-09-29 02:43:00,
2013-09-28 21:53:00,69.0,64.0,-100.00,North,8,5.0,13.0,85,0.00,,,1.07,0.000000,,2013-09-29 02:53:00,
2013-09-28 22:03:00,69.0,64.0,-100.00,North,8,5.0,13.0,85,0.00,,,1.07,0.000000,,2013-09-29 03:03:00,
2013-09-28 22:44:00,68.0,63.0,-100.00,North,354,7.0,14.0,85,0.00,,,-99.99,0.000000,,2013-09-29 03:44:00,
2013-09-28 22:55:00,68.0,63.0,-100.00,North,354,7.0,14.0,85,0.00,,,-99.99,0.000000,,2013-09-29 03:55:00,
2013-09-28 23:02:00,-999.0,-99.9,-100.00,North,354,7.0,14.0,-999,-99.99,,,-99.99,0.000000,,2013-09-29 04:02:00,
2013-09-28 23:44:00,67.0,62.0,-100.00,North,356,7.0,12.0,84,0.00,,,1.07,0.000000,,2013-09-29 04:44:00,
2013-09-28 23:54:00,67.0,62.0,-100.00,North,356,7.0,12.0,84,0.00,,,1.07,0.000000,,2013-09-29 04:54:00,